sensor_id;sensor_type;location;lat;lon;timestamp;P1;durP1;ratioP1;P2;durP2;ratioP2
50681;SDS011;36779;52.168;20.878;2023-03-03T00:02:17;99.90;;;28.80;;
50681;SDS011;36779;52.168;20.878;2023-03-03T00:05:11;110.40;;;31.30;;
50681;SDS011;36779;52.168;20.878;2023-03-03T00:08:15;112.50;;;31.70;;
50681;SDS011;36779;52.168;20.878;2023-03-03T00:10:56;107.80;;;31.90;;
50681;SDS011;36779;52.168;20.878;2023-03-03T00:13:57;102.60;;;29.90;;
50681;SDS011;36779;52.168;20.878;2023-03-03T00:16:48;102.20;;;29.90;;
50681;SDS011;36779;52.168;20.878;2023-03-03T00:19:40;93.10;;;29.50;;
50681;SDS011;36779;52.168;20.878;2023-03-03T00:22:35;102.90;;;30.30;;
50681;SDS011;36779;52.168;20.878;2023-03-03T00:25:29;105.50;;;30.90;;
50681;SDS011;36779;52.168;20.878;2023-03-03T00:28:24;120.90;;;31.20;;
50681;SDS011;36779;52.168;20.878;2023-03-03T00:31:19;103.70;;;31.40;;
50681;SDS011;36779;52.168;20.878;2023-03-03T00:34:28;101.60;;;31.30;;
50681;SDS011;36779;52.168;20.878;2023-03-03T00:37:21;112.00;;;30.80;;
50681;SDS011;36779;52.168;20.878;2023-03-03T00:40:21;111.90;;;30.40;;
50681;SDS011;36779;52.168;20.878;2023-03-03T00:43:18;106.10;;;32.90;;
50681;SDS011;36779;52.168;20.878;2023-03-03T00:46:15;105.80;;;31.30;;
50681;SDS011;36779;52.168;20.878;2023-03-03T00:49:16;97.70;;;28.00;;
50681;SDS011;36779;52.168;20.878;2023-03-03T00:52:13;102.20;;;31.00;;
50681;SDS011;36779;52.168;20.878;2023-03-03T00:55:09;110.30;;;30.10;;
50681;SDS011;36779;52.168;20.878;2023-03-03T00:58:07;96.80;;;29.70;;
50681;SDS011;36779;52.168;20.878;2023-03-03T01:01:00;90.80;;;29.00;;
50681;SDS011;36779;52.168;20.878;2023-03-03T01:04:02;97.70;;;27.90;;
50681;SDS011;36779;52.168;20.878;2023-03-03T01:06:56;89.80;;;28.30;;
50681;SDS011;36779;52.168;20.878;2023-03-03T01:09:49;83.40;;;27.00;;
50681;SDS011;36779;52.168;20.878;2023-03-03T01:12:48;98.90;;;29.30;;
50681;SDS011;36779;52.168;20.878;2023-03-03T01:15:43;109.10;;;30.40;;
50681;SDS011;36779;52.168;20.878;2023-03-03T01:18:37;101.80;;;29.80;;
50681;SDS011;36779;52.168;20.878;2023-03-03T01:21:46;101.80;;;29.90;;
50681;SDS011;36779;52.168;20.878;2023-03-03T01:57:17;91.10;;;23.50;;
50681;SDS011;36779;52.168;20.878;2023-03-03T02:00:20;88.40;;;25.30;;
50681;SDS011;36779;52.168;20.878;2023-03-03T02:03:13;88.90;;;26.70;;
50681;SDS011;36779;52.168;20.878;2023-03-03T02:06:37;90.50;;;27.60;;
50681;SDS011;36779;52.168;20.878;2023-03-03T02:09:54;86.00;;;27.40;;
50681;SDS011;36779;52.168;20.878;2023-03-03T02:12:54;90.10;;;25.90;;
50681;SDS011;36779;52.168;20.878;2023-03-03T02:16:24;93.20;;;27.10;;
50681;SDS011;36779;52.168;20.878;2023-03-03T02:19:19;91.30;;;26.90;;
50681;SDS011;36779;52.168;20.878;2023-03-03T02:22:17;89.30;;;27.30;;
50681;SDS011;36779;52.168;20.878;2023-03-03T02:25:19;74.20;;;24.30;;
50681;SDS011;36779;52.168;20.878;2023-03-03T02:28:19;78.10;;;24.80;;
50681;SDS011;36779;52.168;20.878;2023-03-03T02:31:13;89.00;;;26.80;;
50681;SDS011;36779;52.168;20.878;2023-03-03T02:34:16;83.50;;;26.50;;
50681;SDS011;36779;52.168;20.878;2023-03-03T02:37:08;83.40;;;24.40;;
50681;SDS011;36779;52.168;20.878;2023-03-03T02:39:59;91.30;;;25.00;;
50681;SDS011;36779;52.168;20.878;2023-03-03T02:42:55;81.30;;;26.60;;
50681;SDS011;36779;52.168;20.878;2023-03-03T02:45:52;82.20;;;25.40;;
50681;SDS011;36779;52.168;20.878;2023-03-03T02:48:44;91.40;;;26.10;;
50681;SDS011;36779;52.168;20.878;2023-03-03T02:51:39;82.70;;;27.10;;
50681;SDS011;36779;52.168;20.878;2023-03-03T02:54:33;85.50;;;26.60;;
50681;SDS011;36779;52.168;20.878;2023-03-03T02:57:24;89.10;;;27.70;;
50681;SDS011;36779;52.168;20.878;2023-03-03T03:00:16;88.50;;;27.10;;
50681;SDS011;36779;52.168;20.878;2023-03-03T03:03:09;98.80;;;29.40;;
50681;SDS011;36779;52.168;20.878;2023-03-03T03:06:00;105.70;;;28.80;;
50681;SDS011;36779;52.168;20.878;2023-03-03T03:08:51;107.00;;;30.70;;
50681;SDS011;36779;52.168;20.878;2023-03-03T03:11:46;105.50;;;29.80;;
50681;SDS011;36779;52.168;20.878;2023-03-03T03:14:42;78.60;;;26.10;;
50681;SDS011;36779;52.168;20.878;2023-03-03T03:17:33;94.20;;;28.10;;
50681;SDS011;36779;52.168;20.878;2023-03-03T03:20:24;86.10;;;26.00;;
50681;SDS011;36779;52.168;20.878;2023-03-03T03:23:18;77.20;;;25.70;;
50681;SDS011;36779;52.168;20.878;2023-03-03T03:26:12;79.90;;;25.90;;
50681;SDS011;36779;52.168;20.878;2023-03-03T03:29:02;90.10;;;26.70;;
50681;SDS011;36779;52.168;20.878;2023-03-03T03:31:59;85.80;;;26.00;;
50681;SDS011;36779;52.168;20.878;2023-03-03T03:34:57;97.50;;;27.20;;
50681;SDS011;36779;52.168;20.878;2023-03-03T03:37:53;85.90;;;26.10;;
50681;SDS011;36779;52.168;20.878;2023-03-03T03:40:53;88.50;;;26.20;;
50681;SDS011;36779;52.168;20.878;2023-03-03T03:43:47;86.60;;;26.90;;
50681;SDS011;36779;52.168;20.878;2023-03-03T03:46:39;86.10;;;26.60;;
50681;SDS011;36779;52.168;20.878;2023-03-03T03:49:39;82.40;;;26.20;;
50681;SDS011;36779;52.168;20.878;2023-03-03T03:52:29;96.10;;;29.10;;
50681;SDS011;36779;52.168;20.878;2023-03-03T03:55:21;88.40;;;29.20;;
50681;SDS011;36779;52.168;20.878;2023-03-03T03:58:13;97.50;;;29.70;;
50681;SDS011;36779;52.168;20.878;2023-03-03T04:01:08;93.50;;;29.30;;
50681;SDS011;36779;52.168;20.878;2023-03-03T04:04:01;81.10;;;26.10;;
50681;SDS011;36779;52.168;20.878;2023-03-03T04:07:16;79.90;;;23.20;;
50681;SDS011;36779;52.168;20.878;2023-03-03T04:10:10;71.50;;;19.90;;
50681;SDS011;36779;52.168;20.878;2023-03-03T04:13:01;74.00;;;21.30;;
50681;SDS011;36779;52.168;20.878;2023-03-03T04:16:09;74.40;;;22.40;;
50681;SDS011;36779;52.168;20.878;2023-03-03T04:19:06;73.20;;;21.50;;
50681;SDS011;36779;52.168;20.878;2023-03-03T04:21:59;73.50;;;22.00;;
50681;SDS011;36779;52.168;20.878;2023-03-03T04:24:56;76.00;;;23.00;;
50681;SDS011;36779;52.168;20.878;2023-03-03T04:28:00;84.80;;;24.30;;
50681;SDS011;36779;52.168;20.878;2023-03-03T04:30:57;81.90;;;24.80;;
50681;SDS011;36779;52.168;20.878;2023-03-03T04:33:57;90.80;;;23.70;;
50681;SDS011;36779;52.168;20.878;2023-03-03T04:36:49;77.00;;;24.90;;
50681;SDS011;36779;52.168;20.878;2023-03-03T04:39:45;72.30;;;24.00;;
50681;SDS011;36779;52.168;20.878;2023-03-03T04:42:37;88.40;;;25.00;;
50681;SDS011;36779;52.168;20.878;2023-03-03T04:45:33;69.10;;;21.20;;
50681;SDS011;36779;52.168;20.878;2023-03-03T04:48:32;77.20;;;23.80;;
50681;SDS011;36779;52.168;20.878;2023-03-03T04:51:46;65.60;;;20.70;;
50681;SDS011;36779;52.168;20.878;2023-03-03T04:54:38;68.30;;;21.00;;
50681;SDS011;36779;52.168;20.878;2023-03-03T04:57:30;91.90;;;24.80;;
50681;SDS011;36779;52.168;20.878;2023-03-03T05:00:22;75.60;;;22.90;;
50681;SDS011;36779;52.168;20.878;2023-03-03T05:03:16;65.30;;;21.00;;
50681;SDS011;36779;52.168;20.878;2023-03-03T05:06:11;78.70;;;24.10;;
50681;SDS011;36779;52.168;20.878;2023-03-03T05:09:26;92.50;;;27.10;;
50681;SDS011;36779;52.168;20.878;2023-03-03T05:12:18;88.80;;;26.50;;
50681;SDS011;36779;52.168;20.878;2023-03-03T05:15:14;81.30;;;23.90;;
50681;SDS011;36779;52.168;20.878;2023-03-03T05:18:44;90.80;;;26.90;;
50681;SDS011;36779;52.168;20.878;2023-03-03T05:21:35;91.70;;;26.50;;
50681;SDS011;36779;52.168;20.878;2023-03-03T05:24:50;93.80;;;27.80;;
50681;SDS011;36779;52.168;20.878;2023-03-03T05:28:00;90.60;;;26.10;;
50681;SDS011;36779;52.168;20.878;2023-03-03T05:30:56;95.90;;;28.60;;
50681;SDS011;36779;52.168;20.878;2023-03-03T05:33:48;99.70;;;27.40;;
50681;SDS011;36779;52.168;20.878;2023-03-03T05:36:39;90.60;;;26.70;;
50681;SDS011;36779;52.168;20.878;2023-03-03T05:39:21;100.90;;;27.20;;
50681;SDS011;36779;52.168;20.878;2023-03-03T05:42:11;104.80;;;27.40;;
50681;SDS011;36779;52.168;20.878;2023-03-03T05:45:05;92.40;;;27.60;;
50681;SDS011;36779;52.168;20.878;2023-03-03T05:47:58;103.40;;;28.30;;
50681;SDS011;36779;52.168;20.878;2023-03-03T05:50:50;95.70;;;25.50;;
50681;SDS011;36779;52.168;20.878;2023-03-03T05:53:40;102.10;;;31.60;;
50681;SDS011;36779;52.168;20.878;2023-03-03T05:56:33;112.80;;;31.20;;
50681;SDS011;36779;52.168;20.878;2023-03-03T05:59:28;115.60;;;31.00;;
50681;SDS011;36779;52.168;20.878;2023-03-03T06:02:15;125.10;;;30.40;;
50681;SDS011;36779;52.168;20.878;2023-03-03T06:05:10;127.80;;;33.30;;
50681;SDS011;36779;52.168;20.878;2023-03-03T06:08:00;119.10;;;32.70;;
50681;SDS011;36779;52.168;20.878;2023-03-03T06:11:01;113.60;;;32.20;;
50681;SDS011;36779;52.168;20.878;2023-03-03T06:13:55;114.70;;;30.10;;
50681;SDS011;36779;52.168;20.878;2023-03-03T06:16:46;100.90;;;28.50;;
50681;SDS011;36779;52.168;20.878;2023-03-03T06:19:36;107.30;;;28.00;;
50681;SDS011;36779;52.168;20.878;2023-03-03T06:22:30;103.50;;;28.30;;
50681;SDS011;36779;52.168;20.878;2023-03-03T06:25:20;106.10;;;29.10;;
50681;SDS011;36779;52.168;20.878;2023-03-03T06:28:10;116.40;;;30.60;;
50681;SDS011;36779;52.168;20.878;2023-03-03T06:31:00;82.50;;;23.10;;
50681;SDS011;36779;52.168;20.878;2023-03-03T06:33:50;95.80;;;26.20;;
50681;SDS011;36779;52.168;20.878;2023-03-03T06:36:41;92.50;;;27.10;;
50681;SDS011;36779;52.168;20.878;2023-03-03T06:39:34;69.60;;;22.70;;
50681;SDS011;36779;52.168;20.878;2023-03-03T06:42:23;84.50;;;26.30;;
50681;SDS011;36779;52.168;20.878;2023-03-03T06:45:18;100.60;;;30.50;;
50681;SDS011;36779;52.168;20.878;2023-03-03T06:48:09;78.30;;;21.90;;
50681;SDS011;36779;52.168;20.878;2023-03-03T06:50:59;95.70;;;25.10;;
50681;SDS011;36779;52.168;20.878;2023-03-03T06:53:50;90.60;;;23.60;;
50681;SDS011;36779;52.168;20.878;2023-03-03T06:56:42;81.90;;;22.90;;
50681;SDS011;36779;52.168;20.878;2023-03-03T06:59:32;87.40;;;23.30;;
50681;SDS011;36779;52.168;20.878;2023-03-03T07:02:23;80.20;;;22.00;;
50681;SDS011;36779;52.168;20.878;2023-03-03T07:05:13;78.00;;;21.40;;
50681;SDS011;36779;52.168;20.878;2023-03-03T07:08:14;73.20;;;23.80;;
50681;SDS011;36779;52.168;20.878;2023-03-03T07:11:10;83.30;;;23.10;;
50681;SDS011;36779;52.168;20.878;2023-03-03T07:14:07;87.40;;;23.00;;
50681;SDS011;36779;52.168;20.878;2023-03-03T07:17:09;75.70;;;21.60;;
50681;SDS011;36779;52.168;20.878;2023-03-03T07:20:10;108.20;;;31.70;;
50681;SDS011;36779;52.168;20.878;2023-03-03T07:23:14;92.30;;;25.70;;
50681;SDS011;36779;52.168;20.878;2023-03-03T07:26:11;58.80;;;18.70;;
50681;SDS011;36779;52.168;20.878;2023-03-03T07:29:03;101.60;;;25.50;;
50681;SDS011;36779;52.168;20.878;2023-03-03T07:32:18;108.20;;;32.20;;
50681;SDS011;36779;52.168;20.878;2023-03-03T07:35:34;115.10;;;31.50;;
50681;SDS011;36779;52.168;20.878;2023-03-03T07:38:35;83.40;;;24.10;;
50681;SDS011;36779;52.168;20.878;2023-03-03T07:41:28;118.00;;;34.30;;
50681;SDS011;36779;52.168;20.878;2023-03-03T07:44:23;80.10;;;21.30;;
50681;SDS011;36779;52.168;20.878;2023-03-03T07:47:21;75.20;;;19.40;;
50681;SDS011;36779;52.168;20.878;2023-03-03T07:50:14;73.10;;;19.70;;
50681;SDS011;36779;52.168;20.878;2023-03-03T07:53:11;71.20;;;19.60;;
50681;SDS011;36779;52.168;20.878;2023-03-03T07:56:14;74.20;;;19.50;;
50681;SDS011;36779;52.168;20.878;2023-03-03T07:59:17;65.90;;;17.60;;
50681;SDS011;36779;52.168;20.878;2023-03-03T08:02:15;64.50;;;17.60;;
50681;SDS011;36779;52.168;20.878;2023-03-03T08:05:32;91.30;;;21.00;;
50681;SDS011;36779;52.168;20.878;2023-03-03T08:08:30;76.60;;;19.50;;
50681;SDS011;36779;52.168;20.878;2023-03-03T08:11:23;85.70;;;23.10;;
50681;SDS011;36779;52.168;20.878;2023-03-03T08:14:14;78.80;;;23.30;;
50681;SDS011;36779;52.168;20.878;2023-03-03T08:17:12;64.90;;;17.90;;
50681;SDS011;36779;52.168;20.878;2023-03-03T08:20:10;78.40;;;20.10;;
50681;SDS011;36779;52.168;20.878;2023-03-03T08:23:35;82.80;;;20.40;;
50681;SDS011;36779;52.168;20.878;2023-03-03T08:26:26;66.70;;;17.70;;
50681;SDS011;36779;52.168;20.878;2023-03-03T08:29:16;70.80;;;19.50;;
50681;SDS011;36779;52.168;20.878;2023-03-03T08:32:05;68.50;;;18.70;;
50681;SDS011;36779;52.168;20.878;2023-03-03T08:34:55;66.20;;;16.00;;
50681;SDS011;36779;52.168;20.878;2023-03-03T08:37:45;63.90;;;18.10;;
50681;SDS011;36779;52.168;20.878;2023-03-03T08:43:22;49.50;;;16.00;;
50681;SDS011;36779;52.168;20.878;2023-03-03T08:46:12;70.60;;;22.20;;
50681;SDS011;36779;52.168;20.878;2023-03-03T08:49:05;68.30;;;20.00;;
50681;SDS011;36779;52.168;20.878;2023-03-03T08:51:57;68.00;;;18.60;;
50681;SDS011;36779;52.168;20.878;2023-03-03T08:54:50;37.70;;;11.10;;
50681;SDS011;36779;52.168;20.878;2023-03-03T09:00:27;51.80;;;14.20;;
50681;SDS011;36779;52.168;20.878;2023-03-03T09:03:17;51.00;;;13.60;;
50681;SDS011;36779;52.168;20.878;2023-03-03T09:06:06;41.10;;;12.40;;
50681;SDS011;36779;52.168;20.878;2023-03-03T09:08:55;51.80;;;13.60;;
50681;SDS011;36779;52.168;20.878;2023-03-03T09:11:45;46.20;;;13.20;;
50681;SDS011;36779;52.168;20.878;2023-03-03T09:14:35;59.90;;;15.80;;
50681;SDS011;36779;52.168;20.878;2023-03-03T09:17:25;50.90;;;13.90;;
50681;SDS011;36779;52.168;20.878;2023-03-03T09:20:23;44.10;;;10.70;;
50681;SDS011;36779;52.168;20.878;2023-03-03T09:23:35;36.20;;;10.40;;
50681;SDS011;36779;52.168;20.878;2023-03-03T09:26:26;50.90;;;15.50;;
50681;SDS011;36779;52.168;20.878;2023-03-03T09:29:18;50.30;;;15.10;;
50681;SDS011;36779;52.168;20.878;2023-03-03T09:32:20;51.00;;;13.00;;
50681;SDS011;36779;52.168;20.878;2023-03-03T09:35:25;62.70;;;16.30;;
50681;SDS011;36779;52.168;20.878;2023-03-03T09:38:26;61.20;;;16.60;;
50681;SDS011;36779;52.168;20.878;2023-03-03T09:41:38;47.30;;;13.60;;
50681;SDS011;36779;52.168;20.878;2023-03-03T09:44:47;49.90;;;13.90;;
50681;SDS011;36779;52.168;20.878;2023-03-03T09:51:41;63.90;;;18.00;;
50681;SDS011;36779;52.168;20.878;2023-03-03T09:54:47;45.30;;;13.00;;
50681;SDS011;36779;52.168;20.878;2023-03-03T09:57:49;55.10;;;15.30;;
50681;SDS011;36779;52.168;20.878;2023-03-03T10:01:00;58.20;;;17.60;;
50681;SDS011;36779;52.168;20.878;2023-03-03T10:04:04;62.20;;;17.50;;
50681;SDS011;36779;52.168;20.878;2023-03-03T10:07:11;56.30;;;15.10;;
50681;SDS011;36779;52.168;20.878;2023-03-03T10:16:32;51.40;;;11.40;;
50681;SDS011;36779;52.168;20.878;2023-03-03T10:19:37;56.60;;;16.50;;
50681;SDS011;36779;52.168;20.878;2023-03-03T10:22:31;62.50;;;18.50;;
50681;SDS011;36779;52.168;20.878;2023-03-03T10:31:59;68.20;;;18.20;;
50681;SDS011;36779;52.168;20.878;2023-03-03T10:35:16;54.80;;;15.20;;
50681;SDS011;36779;52.168;20.878;2023-03-03T10:38:28;64.50;;;17.70;;
50681;SDS011;36779;52.168;20.878;2023-03-03T10:41:30;60.30;;;18.60;;
50681;SDS011;36779;52.168;20.878;2023-03-03T10:44:37;58.20;;;16.30;;
50681;SDS011;36779;52.168;20.878;2023-03-03T10:47:47;58.90;;;16.50;;
50681;SDS011;36779;52.168;20.878;2023-03-03T10:50:49;59.40;;;18.00;;
50681;SDS011;36779;52.168;20.878;2023-03-03T10:53:48;59.50;;;16.60;;
50681;SDS011;36779;52.168;20.878;2023-03-03T10:57:00;51.20;;;14.80;;
50681;SDS011;36779;52.168;20.878;2023-03-03T11:00:12;51.10;;;13.80;;
50681;SDS011;36779;52.168;20.878;2023-03-03T11:03:18;56.70;;;16.00;;
50681;SDS011;36779;52.168;20.878;2023-03-03T11:06:25;56.70;;;16.00;;
50681;SDS011;36779;52.168;20.878;2023-03-03T11:09:32;45.50;;;12.20;;
50681;SDS011;36779;52.168;20.878;2023-03-03T11:12:32;53.20;;;15.60;;
50681;SDS011;36779;52.168;20.878;2023-03-03T11:15:59;44.40;;;13.20;;
50681;SDS011;36779;52.168;20.878;2023-03-03T11:19:11;45.30;;;13.90;;
50681;SDS011;36779;52.168;20.878;2023-03-03T11:22:19;41.60;;;13.90;;
50681;SDS011;36779;52.168;20.878;2023-03-03T11:25:17;33.50;;;10.40;;
50681;SDS011;36779;52.168;20.878;2023-03-03T11:28:22;41.40;;;12.90;;
50681;SDS011;36779;52.168;20.878;2023-03-03T11:31:27;42.80;;;11.90;;
50681;SDS011;36779;52.168;20.878;2023-03-03T11:34:31;38.50;;;12.00;;
50681;SDS011;36779;52.168;20.878;2023-03-03T11:37:36;38.20;;;12.70;;
50681;SDS011;36779;52.168;20.878;2023-03-03T11:40:31;37.90;;;12.40;;
50681;SDS011;36779;52.168;20.878;2023-03-03T11:43:33;30.50;;;8.90;;
50681;SDS011;36779;52.168;20.878;2023-03-03T11:46:31;29.90;;;9.90;;
50681;SDS011;36779;52.168;20.878;2023-03-03T11:49:27;32.00;;;11.30;;
50681;SDS011;36779;52.168;20.878;2023-03-03T11:52:26;24.80;;;8.60;;
50681;SDS011;36779;52.168;20.878;2023-03-03T11:55:37;33.50;;;11.80;;
50681;SDS011;36779;52.168;20.878;2023-03-03T11:58:30;25.30;;;7.20;;
50681;SDS011;36779;52.168;20.878;2023-03-03T12:01:28;31.80;;;10.60;;
50681;SDS011;36779;52.168;20.878;2023-03-03T12:04:24;31.80;;;9.20;;
50681;SDS011;36779;52.168;20.878;2023-03-03T12:07:22;36.90;;;10.30;;
50681;SDS011;36779;52.168;20.878;2023-03-03T12:10:19;38.40;;;12.70;;
50681;SDS011;36779;52.168;20.878;2023-03-03T12:13:17;39.30;;;13.10;;
50681;SDS011;36779;52.168;20.878;2023-03-03T12:16:19;25.10;;;9.60;;
50681;SDS011;36779;52.168;20.878;2023-03-03T12:19:24;20.40;;;6.60;;
50681;SDS011;36779;52.168;20.878;2023-03-03T12:22:27;35.60;;;9.00;;
50681;SDS011;36779;52.168;20.878;2023-03-03T12:25:22;9.80;;;3.50;;
50681;SDS011;36779;52.168;20.878;2023-03-03T12:28:21;38.40;;;12.40;;
50681;SDS011;36779;52.168;20.878;2023-03-03T12:31:15;28.90;;;8.80;;
50681;SDS011;36779;52.168;20.878;2023-03-03T12:34:17;41.50;;;11.90;;
50681;SDS011;36779;52.168;20.878;2023-03-03T12:37:17;30.80;;;9.50;;
50681;SDS011;36779;52.168;20.878;2023-03-03T12:40:18;32.60;;;10.70;;
50681;SDS011;36779;52.168;20.878;2023-03-03T12:43:15;39.40;;;12.10;;
50681;SDS011;36779;52.168;20.878;2023-03-03T12:46:13;28.50;;;8.30;;
50681;SDS011;36779;52.168;20.878;2023-03-03T12:49:16;36.00;;;10.40;;
50681;SDS011;36779;52.168;20.878;2023-03-03T12:52:09;33.90;;;9.80;;
50681;SDS011;36779;52.168;20.878;2023-03-03T12:55:12;37.40;;;11.00;;
50681;SDS011;36779;52.168;20.878;2023-03-03T12:58:33;33.10;;;10.10;;
50681;SDS011;36779;52.168;20.878;2023-03-03T13:04:55;30.80;;;9.60;;
50681;SDS011;36779;52.168;20.878;2023-03-03T13:08:01;30.60;;;10.00;;
50681;SDS011;36779;52.168;20.878;2023-03-03T13:11:12;36.60;;;13.50;;
50681;SDS011;36779;52.168;20.878;2023-03-03T13:14:32;19.00;;;5.50;;
50681;SDS011;36779;52.168;20.878;2023-03-03T13:17:29;29.90;;;8.30;;
50681;SDS011;36779;52.168;20.878;2023-03-03T13:20:24;33.30;;;10.80;;
50681;SDS011;36779;52.168;20.878;2023-03-03T13:23:25;36.20;;;12.20;;
50681;SDS011;36779;52.168;20.878;2023-03-03T13:26:26;28.90;;;10.80;;
50681;SDS011;36779;52.168;20.878;2023-03-03T13:29:24;31.90;;;10.10;;
50681;SDS011;36779;52.168;20.878;2023-03-03T13:32:18;30.80;;;10.10;;
50681;SDS011;36779;52.168;20.878;2023-03-03T13:35:14;33.70;;;11.40;;
50681;SDS011;36779;52.168;20.878;2023-03-03T13:38:17;35.50;;;10.70;;
50681;SDS011;36779;52.168;20.878;2023-03-03T13:41:13;33.70;;;11.50;;
50681;SDS011;36779;52.168;20.878;2023-03-03T13:44:12;24.80;;;8.60;;
50681;SDS011;36779;52.168;20.878;2023-03-03T13:47:11;21.20;;;7.40;;
50681;SDS011;36779;52.168;20.878;2023-03-03T13:50:17;26.40;;;9.30;;
50681;SDS011;36779;52.168;20.878;2023-03-03T13:53:21;19.40;;;8.00;;
50681;SDS011;36779;52.168;20.878;2023-03-03T13:56:24;33.50;;;10.40;;
50681;SDS011;36779;52.168;20.878;2023-03-03T13:59:35;31.00;;;8.70;;
50681;SDS011;36779;52.168;20.878;2023-03-03T14:02:42;36.70;;;11.20;;
50681;SDS011;36779;52.168;20.878;2023-03-03T14:05:47;40.00;;;12.90;;
50681;SDS011;36779;52.168;20.878;2023-03-03T14:08:43;34.40;;;11.30;;
50681;SDS011;36779;52.168;20.878;2023-03-03T14:11:45;40.60;;;12.90;;
50681;SDS011;36779;52.168;20.878;2023-03-03T14:14:47;39.20;;;12.50;;
50681;SDS011;36779;52.168;20.878;2023-03-03T14:17:47;38.60;;;12.40;;
50681;SDS011;36779;52.168;20.878;2023-03-03T14:20:50;22.80;;;7.30;;
50681;SDS011;36779;52.168;20.878;2023-03-03T14:23:47;31.70;;;11.10;;
50681;SDS011;36779;52.168;20.878;2023-03-03T14:26:46;40.20;;;13.30;;
50681;SDS011;36779;52.168;20.878;2023-03-03T14:29:39;33.30;;;10.60;;
50681;SDS011;36779;52.168;20.878;2023-03-03T14:32:34;44.30;;;13.40;;
50681;SDS011;36779;52.168;20.878;2023-03-03T14:35:38;41.10;;;12.20;;
50681;SDS011;36779;52.168;20.878;2023-03-03T14:38:43;38.50;;;11.80;;
50681;SDS011;36779;52.168;20.878;2023-03-03T14:41:39;32.20;;;10.70;;
50681;SDS011;36779;52.168;20.878;2023-03-03T14:44:30;37.40;;;11.20;;
50681;SDS011;36779;52.168;20.878;2023-03-03T14:47:24;28.50;;;9.10;;
50681;SDS011;36779;52.168;20.878;2023-03-03T14:50:29;20.00;;;7.80;;
50681;SDS011;36779;52.168;20.878;2023-03-03T14:53:29;44.00;;;12.90;;
50681;SDS011;36779;52.168;20.878;2023-03-03T14:56:22;20.90;;;7.80;;
50681;SDS011;36779;52.168;20.878;2023-03-03T14:59:16;47.20;;;14.60;;
50681;SDS011;36779;52.168;20.878;2023-03-03T15:02:23;12.60;;;4.60;;
50681;SDS011;36779;52.168;20.878;2023-03-03T15:05:22;39.10;;;11.60;;
50681;SDS011;36779;52.168;20.878;2023-03-03T15:08:13;33.80;;;10.50;;
50681;SDS011;36779;52.168;20.878;2023-03-03T15:14:14;33.20;;;10.80;;
50681;SDS011;36779;52.168;20.878;2023-03-03T15:20:20;36.00;;;11.80;;
50681;SDS011;36779;52.168;20.878;2023-03-03T15:23:26;28.90;;;9.60;;
50681;SDS011;36779;52.168;20.878;2023-03-03T15:26:37;36.90;;;11.60;;
50681;SDS011;36779;52.168;20.878;2023-03-03T15:32:26;42.80;;;12.10;;
50681;SDS011;36779;52.168;20.878;2023-03-03T15:35:25;33.80;;;11.10;;
50681;SDS011;36779;52.168;20.878;2023-03-03T15:38:32;53.70;;;15.20;;
50681;SDS011;36779;52.168;20.878;2023-03-03T15:41:34;45.60;;;12.10;;
50681;SDS011;36779;52.168;20.878;2023-03-03T15:44:40;51.40;;;15.20;;
50681;SDS011;36779;52.168;20.878;2023-03-03T15:48:00;37.90;;;12.20;;
50681;SDS011;36779;52.168;20.878;2023-03-03T15:51:04;50.50;;;13.50;;
50681;SDS011;36779;52.168;20.878;2023-03-03T15:54:12;39.60;;;11.70;;
50681;SDS011;36779;52.168;20.878;2023-03-03T15:57:16;83.00;;;22.60;;
50681;SDS011;36779;52.168;20.878;2023-03-03T16:00:15;38.00;;;12.20;;
50681;SDS011;36779;52.168;20.878;2023-03-03T16:03:18;98.30;;;23.90;;
50681;SDS011;36779;52.168;20.878;2023-03-03T16:06:20;37.00;;;12.60;;
50681;SDS011;36779;52.168;20.878;2023-03-03T16:09:20;48.00;;;13.10;;
50681;SDS011;36779;52.168;20.878;2023-03-03T16:12:21;30.50;;;10.40;;
50681;SDS011;36779;52.168;20.878;2023-03-03T16:15:22;40.10;;;11.90;;
50681;SDS011;36779;52.168;20.878;2023-03-03T16:18:26;25.30;;;7.90;;
50681;SDS011;36779;52.168;20.878;2023-03-03T16:21:30;34.40;;;11.70;;
50681;SDS011;36779;52.168;20.878;2023-03-03T16:25:14;38.60;;;12.00;;
50681;SDS011;36779;52.168;20.878;2023-03-03T16:28:15;41.40;;;12.40;;
50681;SDS011;36779;52.168;20.878;2023-03-03T16:31:11;61.90;;;19.20;;
50681;SDS011;36779;52.168;20.878;2023-03-03T16:34:11;31.10;;;11.30;;
50681;SDS011;36779;52.168;20.878;2023-03-03T16:37:11;33.70;;;11.70;;
50681;SDS011;36779;52.168;20.878;2023-03-03T16:40:10;29.30;;;9.60;;
50681;SDS011;36779;52.168;20.878;2023-03-03T16:43:26;32.20;;;10.50;;
50681;SDS011;36779;52.168;20.878;2023-03-03T16:46:27;35.60;;;11.50;;
50681;SDS011;36779;52.168;20.878;2023-03-03T16:49:26;35.50;;;13.20;;
50681;SDS011;36779;52.168;20.878;2023-03-03T16:52:22;23.20;;;8.30;;
50681;SDS011;36779;52.168;20.878;2023-03-03T16:55:18;31.20;;;10.70;;
50681;SDS011;36779;52.168;20.878;2023-03-03T16:58:17;19.00;;;5.90;;
50681;SDS011;36779;52.168;20.878;2023-03-03T17:01:18;22.70;;;7.30;;
50681;SDS011;36779;52.168;20.878;2023-03-03T17:04:13;28.60;;;9.60;;
50681;SDS011;36779;52.168;20.878;2023-03-03T17:07:17;29.10;;;10.00;;
50681;SDS011;36779;52.168;20.878;2023-03-03T17:10:26;23.70;;;7.90;;
50681;SDS011;36779;52.168;20.878;2023-03-03T17:13:23;35.00;;;12.90;;
50681;SDS011;36779;52.168;20.878;2023-03-03T17:16:33;37.10;;;13.70;;
50681;SDS011;36779;52.168;20.878;2023-03-03T17:19:57;31.10;;;11.10;;
50681;SDS011;36779;52.168;20.878;2023-03-03T17:23:04;41.50;;;12.70;;
50681;SDS011;36779;52.168;20.878;2023-03-03T17:26:20;54.20;;;17.00;;
50681;SDS011;36779;52.168;20.878;2023-03-03T17:29:20;33.00;;;12.60;;
50681;SDS011;36779;52.168;20.878;2023-03-03T17:32:23;40.60;;;13.50;;
50681;SDS011;36779;52.168;20.878;2023-03-03T17:35:26;36.60;;;13.20;;
50681;SDS011;36779;52.168;20.878;2023-03-03T17:38:27;34.80;;;11.40;;
50681;SDS011;36779;52.168;20.878;2023-03-03T17:41:27;41.40;;;11.60;;
50681;SDS011;36779;52.168;20.878;2023-03-03T17:44:23;38.80;;;11.80;;
50681;SDS011;36779;52.168;20.878;2023-03-03T17:47:29;39.00;;;12.90;;
50681;SDS011;36779;52.168;20.878;2023-03-03T17:50:33;50.10;;;17.40;;
50681;SDS011;36779;52.168;20.878;2023-03-03T17:53:39;31.50;;;11.20;;
50681;SDS011;36779;52.168;20.878;2023-03-03T17:56:42;29.00;;;10.30;;
50681;SDS011;36779;52.168;20.878;2023-03-03T17:59:46;39.80;;;12.90;;
50681;SDS011;36779;52.168;20.878;2023-03-03T18:02:59;20.00;;;7.40;;
50681;SDS011;36779;52.168;20.878;2023-03-03T18:06:12;34.60;;;9.80;;
50681;SDS011;36779;52.168;20.878;2023-03-03T18:09:22;48.70;;;15.60;;
50681;SDS011;36779;52.168;20.878;2023-03-03T18:12:25;48.10;;;16.60;;
50681;SDS011;36779;52.168;20.878;2023-03-03T18:15:44;51.70;;;16.60;;
50681;SDS011;36779;52.168;20.878;2023-03-03T18:19:03;41.60;;;13.10;;
50681;SDS011;36779;52.168;20.878;2023-03-03T18:22:10;37.90;;;12.30;;